Terminal Aerodrome Forecast
Issued by NWS

Home | Current Version | Previous Version | Text Only | Print | Product List | Glossary On
Versions: 1 2 3 4 5 6 7 8 9 10 11 12 13
000
FTPA31 PHFO 161720
TAFHOG
TAF
PHOG 161720Z 1618/1718 05008KT P6SM FEW025 SCT040
     FM162000 04015G25KT P6SM FEW030 SCT045
     FM170500 04011G17KT P6SM VCSH FEW030 SCT045
     FM171700 04015G22KT P6SM VCSH FEW030 SCT045
      AMD LTD TO VIS AND WIND 1709/1716=

USA.gov is the U.S. government's official web portal to all federal, state and local government web resources and services.